Time;durP1;ratioP1;P1;durP2;ratioP2;P2;SDS_P1;SDS_P2;PMS_P1;PMS_P2;Temp;Humidity;BMP_temperature;BMP_pressure;BME280_temperature;BME280_humidity;BME280_pressure;Samples;Min_cycle;Max_cycle;Signal;HPM_P1;HPM_P2
2021/10/21 00:00:51;;;;;;;6.00;0.93;;;;;;;8.98;71.99;97837.53;4986793;28;20576;-51
2021/10/21 00:03:17;;;;;;;6.72;1.05;;;;;;;9.00;71.58;97842.66;4988982;28;20114;-50
2021/10/21 00:05:44;;;;;;;5.10;0.90;;;;;;;9.02;71.40;97850.38;4987091;28;20046;-52
2021/10/21 00:08:13;;;;;;;2.42;0.73;;;;;;;9.02;71.62;97855.53;4988384;28;20057;-52
2021/10/21 00:10:45;;;;;;;4.45;1.17;;;;;;;8.94;72.07;97864.34;4986891;28;20507;-50
2021/10/21 00:13:13;;;;;;;2.30;0.80;;;;;;;8.97;71.57;97864.25;4987697;28;20042;-52
2021/10/21 00:15:42;;;;;;;6.03;1.25;;;;;;;8.93;72.29;97867.84;4989356;28;20736;-50
2021/10/21 00:18:11;;;;;;;7.65;1.00;;;;;;;8.93;71.47;97869.56;4987927;28;20050;-51
2021/10/21 00:20:39;;;;;;;3.58;0.98;;;;;;;8.92;71.30;97881.63;4987801;28;20065;-51
2021/10/21 00:23:07;;;;;;;2.97;0.93;;;;;;;8.92;71.21;97891.13;4985458;28;20043;-51
2021/10/21 00:25:36;;;;;;;5.47;0.82;;;;;;;8.90;71.76;97893.75;4987123;28;20046;-52
2021/10/21 00:28:03;;;;;;;6.00;1.33;;;;;;;8.86;72.44;97897.31;4987523;28;20372;-52
2021/10/21 00:30:30;;;;;;;3.20;1.23;;;;;;;8.84;72.10;97901.66;4984668;28;20216;-51
2021/10/21 00:32:57;;;;;;;1.45;0.77;;;;;;;8.80;72.14;97918.13;4986529;28;20061;-51
2021/10/21 00:35:24;;;;;;;4.80;1.27;;;;;;;8.82;71.75;97921.53;4987658;28;20054;-53
2021/10/21 00:37:50;;;;;;;4.20;1.23;;;;;;;8.80;71.78;97926.72;4987954;28;20050;-53
2021/10/21 00:40:17;;;;;;;6.40;1.35;;;;;;;8.78;72.87;97935.41;4988772;28;20317;-54
2021/10/21 00:42:43;;;;;;;4.85;1.00;;;;;;;8.75;72.80;97944.09;4986415;28;20190;-51
2021/10/21 00:45:10;;;;;;;4.32;1.70;;;;;;;8.74;72.44;97944.97;4988397;28;20160;-53
2021/10/21 00:47:37;;;;;;;6.00;1.20;;;;;;;8.71;72.73;97935.59;4986500;28;20045;-50
2021/10/21 00:50:04;;;;;;;5.13;0.98;;;;;;;8.70;71.99;97946.81;4987163;28;20474;-52
2021/10/21 00:52:32;;;;;;;5.35;1.50;;;;;;;8.65;72.66;97948.66;4984195;28;20046;-51
2021/10/21 00:54:59;;;;;;;5.15;1.60;;;;;;;8.64;73.06;97949.56;4987493;28;20058;-50
2021/10/21 00:57:26;;;;;;;8.27;1.20;;;;;;;8.59;73.54;97947.13;4989311;28;20051;-51
2021/10/21 00:59:53;;;;;;;7.20;1.38;;;;;;;8.58;73.12;97957.50;4987761;28;20049;-51
2021/10/21 01:02:20;;;;;;;2.63;1.27;;;;;;;8.54;73.74;97968.78;4984883;28;20058;-52
2021/10/21 01:04:47;;;;;;;10.02;1.40;;;;;;;8.52;73.48;97965.38;4989715;28;20049;-50
2021/10/21 01:07:15;;;;;;;6.65;1.58;;;;;;;8.54;72.44;97972.19;4984876;28;21411;-49
2021/10/21 01:09:45;;;;;;;5.30;1.05;;;;;;;8.49;72.43;97974.88;4989246;28;20073;-52
2021/10/21 01:12:13;;;;;;;4.03;1.42;;;;;;;8.47;72.67;97986.97;4987129;28;20075;-48
2021/10/21 01:14:43;;;;;;;4.25;1.48;;;;;;;8.48;72.79;97980.91;4990294;28;20608;-48
2021/10/21 01:17:14;;;;;;;5.47;1.90;;;;;;;8.45;72.83;97986.16;4989686;28;20092;-49
2021/10/21 01:19:42;;;;;;;3.88;1.10;;;;;;;8.44;73.20;97999.94;4990696;28;20058;-49
2021/10/21 01:22:10;;;;;;;7.22;1.15;;;;;;;8.42;73.14;98006.91;4997801;28;20061;-51
2021/10/21 01:24:37;;;;;;;4.93;1.55;;;;;;;8.42;72.94;98012.06;4991642;28;20400;-49
2021/10/21 01:27:04;;;;;;;5.63;1.65;;;;;;;8.48;73.50;98011.88;4994760;28;20167;-49
2021/10/21 01:29:31;;;;;;;2.00;0.50;;;;;;;8.54;73.37;98023.81;4991098;28;20073;-51
2021/10/21 01:31:59;;;;;;;6.57;0.65;;;;;;;8.57;73.43;98017.72;4988852;28;20109;-49
2021/10/21 01:34:26;;;;;;;3.30;0.75;;;;;;;8.55;73.42;98022.06;4991670;28;20050;-51
2021/10/21 01:36:54;;;;;;;5.40;0.90;;;;;;;8.59;72.76;98024.53;4994117;28;20050;-51
2021/10/21 01:39:26;;;;;;;5.88;0.73;;;;;;;8.58;73.20;98037.47;4992138;28;20581;-49
2021/10/21 01:41:54;;;;;;;3.65;1.48;;;;;;;8.54;72.94;98031.53;4993434;28;20046;-48
2021/10/21 01:44:22;;;;;;;4.15;0.95;;;;;;;8.46;73.37;98025.72;4992318;28;20133;-49
2021/10/21 01:46:50;;;;;;;4.15;0.85;;;;;;;8.46;72.84;98024.00;4991136;28;20050;-49
2021/10/21 01:49:20;;;;;;;4.03;1.05;;;;;;;8.42;72.89;98017.22;4994433;28;20070;-49
2021/10/21 01:51:48;;;;;;;2.25;0.70;;;;;;;8.43;71.73;98018.91;4994116;28;20557;-49
2021/10/21 01:54:15;;;;;;;8.02;1.52;;;;;;;8.36;73.08;98013.06;4996954;28;20058;-50
2021/10/21 01:56:42;;;;;;;6.45;1.15;;;;;;;8.37;71.83;98026.78;4991566;28;20057;-49
2021/10/21 01:59:08;;;;;;;1.90;0.47;;;;;;;8.34;72.80;98022.56;4994691;28;20046;-51
2021/10/21 02:01:35;;;;;;;2.78;1.25;;;;;;;8.31;72.04;98019.25;4983990;28;20081;-52
2021/10/21 02:04:02;;;;;;;5.03;0.77;;;;;;;8.29;72.26;98016.69;4991318;28;20042;-49
2021/10/21 02:06:29;;;;;;;6.22;0.55;;;;;;;8.25;71.71;98022.81;4997225;28;20037;-49
2021/10/21 02:08:56;;;;;;;2.75;0.80;;;;;;;8.24;71.57;98026.25;4989866;28;20058;-52
2021/10/21 02:11:22;;;;;;;2.75;0.70;;;;;;;8.22;72.46;98044.38;4996750;28;20046;-51
2021/10/21 02:13:49;;;;;;;4.88;1.02;;;;;;;8.17;71.80;98043.63;4993072;28;20042;-52
2021/10/21 02:16:17;;;;;;;4.25;0.70;;;;;;;8.14;71.87;98038.56;4992870;28;20042;-52
2021/10/21 02:18:43;;;;;;;3.47;1.08;;;;;;;8.13;72.20;98056.63;4991028;28;20050;-49
2021/10/21 02:21:10;;;;;;;5.18;0.93;;;;;;;8.08;71.67;98049.88;4990552;28;20581;-50
2021/10/21 02:23:37;;;;;;;3.55;0.70;;;;;;;8.05;72.26;98056.84;4991626;28;20065;-51
2021/10/21 02:26:03;;;;;;;2.53;0.95;;;;;;;8.02;72.47;98062.94;4985127;28;20396;-49
2021/10/21 02:28:30;;;;;;;3.58;0.60;;;;;;;8.01;71.90;98068.13;4994579;28;20046;-49
2021/10/21 02:30:57;;;;;;;3.50;1.10;;;;;;;7.98;72.88;98066.47;4988735;28;20133;-49
2021/10/21 02:33:24;;;;;;;2.35;0.93;;;;;;;7.96;72.27;98071.66;4988524;28;20062;-50
2021/10/21 02:35:50;;;;;;;3.50;0.63;;;;;;;7.94;72.45;98068.25;4989710;28;20046;-47
2021/10/21 02:38:18;;;;;;;4.72;1.20;;;;;;;7.92;72.73;98080.34;4989729;28;20046;-48
2021/10/21 02:40:44;;;;;;;5.57;0.82;;;;;;;7.92;72.40;98079.47;4989389;28;20185;-48
2021/10/21 02:43:12;;;;;;;2.53;0.50;;;;;;;7.89;72.64;98077.84;4991633;28;20558;-48
2021/10/21 02:45:41;;;;;;;3.58;0.80;;;;;;;7.88;72.44;98089.03;4987881;28;20399;-47
2021/10/21 02:48:07;;;;;;;3.05;0.50;;;;;;;7.90;72.73;98092.41;4993389;28;20426;-52
2021/10/21 02:50:35;;;;;;;4.18;0.77;;;;;;;7.89;71.94;98095.03;4994821;28;20492;-49
2021/10/21 02:53:03;;;;;;;2.55;0.40;;;;;;;7.87;72.49;98107.09;4989238;28;20050;-49
2021/10/21 02:55:31;;;;;;;2.75;0.80;;;;;;;7.86;72.42;98098.53;4987996;28;20038;-50
2021/10/21 02:57:58;;;;;;;1.10;0.73;;;;;;;7.87;72.02;98107.09;5000340;28;20046;-52
2021/10/21 03:00:26;;;;;;;5.40;0.63;;;;;;;7.92;72.32;98111.28;4985248;28;20046;-52
2021/10/21 03:02:54;;;;;;;2.97;0.80;;;;;;;7.94;70.45;98106.09;4992309;28;20049;-49
2021/10/21 03:05:24;;;;;;;3.35;1.00;;;;;;;7.98;71.89;98116.28;4988545;28;20050;-49
2021/10/21 03:07:52;;;;;;;2.63;0.22;;;;;;;8.01;70.86;98111.94;4991980;28;20107;-48
2021/10/21 03:10:19;;;;;;;1.85;0.50;;;;;;;7.99;70.26;98117.13;4992739;28;20073;-48
2021/10/21 03:12:47;;;;;;;1.33;0.52;;;;;;;7.97;71.62;98114.59;4988487;28;20105;-48
2021/10/21 03:15:26;;;;;;;3.30;0.60;;;;;;;7.99;70.19;98117.13;4988225;28;20041;-49
2021/10/21 03:17:54;;;;;;;1.35;0.50;;;;;;;8.04;70.46;98124.78;4988557;28;20054;-48
2021/10/21 03:20:21;;;;;;;2.00;0.63;;;;;;;8.09;70.19;98128.94;5001160;28;20064;-51
2021/10/21 03:22:48;;;;;;;3.83;0.65;;;;;;;8.13;71.59;98128.84;4993756;28;20492;-49
2021/10/21 03:25:15;;;;;;;3.03;0.70;;;;;;;8.17;70.31;98135.66;4999324;28;20629;-52
2021/10/21 03:27:43;;;;;;;3.17;0.50;;;;;;;8.21;70.29;98138.09;4987849;28;20133;-52
2021/10/21 03:30:11;;;;;;;2.03;1.05;;;;;;;8.26;69.77;98139.72;4992602;28;20145;-52
2021/10/21 03:32:42;;;;;;;5.22;0.73;;;;;;;8.30;69.65;98144.78;4988276;28;20046;-49
2021/10/21 03:35:10;;;;;;;1.40;0.52;;;;;;;8.37;70.74;98155.78;4989121;28;20506;-52
2021/10/21 03:37:38;;;;;;;1.83;0.63;;;;;;;8.41;70.57;98165.13;4999634;28;20073;-52
2021/10/21 03:40:07;;;;;;;4.03;1.00;;;;;;;8.46;69.99;98168.47;4993838;28;20085;-52
2021/10/21 03:42:35;;;;;;;3.13;0.65;;;;;;;8.46;69.49;98158.16;4990401;28;20107;-48
2021/10/21 03:45:05;;;;;;;4.85;0.90;;;;;;;8.55;70.43;98177.72;4991688;28;20644;-49
2021/10/21 03:47:32;;;;;;;3.45;0.38;;;;;;;8.57;70.13;98195.75;4988148;28;20053;-51
2021/10/21 03:49:59;;;;;;;3.88;0.82;;;;;;;8.59;70.28;98199.16;5003867;28;20054;-48
2021/10/21 03:52:27;;;;;;;3.25;0.75;;;;;;;8.61;69.30;98207.69;4989943;28;20697;-51
2021/10/21 03:54:54;;;;;;;1.45;1.08;;;;;;;8.63;70.42;98215.41;4998762;28;20046;-51
2021/10/21 03:57:22;;;;;;;3.97;0.52;;;;;;;8.57;69.65;98219.84;4988500;28;20705;-50
2021/10/21 03:59:50;;;;;;;1.65;0.40;;;;;;;8.61;69.98;98224.03;4992200;28;20046;-48
2021/10/21 04:02:19;;;;;;;0.60;0.40;;;;;;;8.62;69.92;98240.38;4996747;28;20057;-51
2021/10/21 04:04:47;;;;;;;1.77;0.93;;;;;;;8.63;70.40;98242.06;4984576;28;20046;-50
2021/10/21 04:07:15;;;;;;;3.00;0.75;;;;;;;8.63;71.05;98252.41;4996648;28;20052;-48
2021/10/21 04:09:42;;;;;;;1.25;0.75;;;;;;;8.56;72.01;98256.84;4993364;28;20073;-49
2021/10/21 04:12:10;;;;;;;1.88;0.47;;;;;;;8.58;71.15;98259.41;4990182;28;20050;-50
2021/10/21 04:14:40;;;;;;;3.10;0.63;;;;;;;8.58;71.72;98269.72;4992395;28;20042;-49
2021/10/21 04:17:07;;;;;;;1.95;0.40;;;;;;;8.59;70.89;98272.28;4991572;28;20058;-50
2021/10/21 04:19:34;;;;;;;0.80;0.57;;;;;;;8.57;70.29;98275.75;4992527;28;20481;-49
2021/10/21 04:22:02;;;;;;;2.92;0.30;;;;;;;8.45;69.40;98279.44;4991272;28;20050;-47
2021/10/21 04:24:28;;;;;;;0.55;0.28;;;;;;;8.45;69.25;98289.78;4996760;28;20507;-51
2021/10/21 04:26:55;;;;;;;0.88;0.70;;;;;;;8.45;69.63;98277.69;4991560;28;20096;-51
2021/10/21 04:29:22;;;;;;;2.08;0.35;;;;;;;8.35;68.49;98307.19;4988543;28;20050;-48
2021/10/21 04:31:53;;;;;;;5.13;0.70;;;;;;;8.39;68.02;98311.38;4993798;28;20065;-49
2021/10/21 04:34:19;;;;;;;2.38;0.77;;;;;;;8.39;68.12;98310.53;4984676;28;20966;-52
2021/10/21 04:36:46;;;;;;;3.13;0.55;;;;;;;8.33;67.33;98324.41;4988769;28;20046;-50
2021/10/21 04:39:12;;;;;;;1.85;0.50;;;;;;;8.35;67.61;98325.25;4987433;28;20050;-48
2021/10/21 04:41:39;;;;;;;1.35;0.35;;;;;;;8.29;67.87;98326.22;4994804;28;20047;-49
2021/10/21 04:44:06;;;;;;;2.22;0.55;;;;;;;8.29;67.37;98333.09;4990998;28;20046;-49
2021/10/21 04:46:32;;;;;;;3.10;1.35;;;;;;;8.24;66.39;98338.34;4994350;28;20050;-49
2021/10/21 04:48:59;;;;;;;3.03;1.17;;;;;;;8.27;66.38;98352.94;4989984;28;20129;-48
2021/10/21 04:51:26;;;;;;;1.23;0.85;;;;;;;8.18;65.63;98359.94;4994538;28;20706;-49
2021/10/21 04:53:52;;;;;;;4.72;0.50;;;;;;;8.18;66.47;98370.25;4996566;28;20050;-49
2021/10/21 04:56:19;;;;;;;2.28;0.60;;;;;;;8.10;66.31;98367.00;4994832;28;20065;-50
2021/10/21 04:58:46;;;;;;;1.73;0.52;;;;;;;8.10;64.85;98380.75;5000114;28;20359;-49
2021/10/21 05:01:12;;;;;;;1.50;0.40;;;;;;;8.06;66.28;98391.16;4992077;28;20050;-52
2021/10/21 05:03:39;;;;;;;3.75;0.63;;;;;;;8.01;66.01;98403.28;4989484;28;20058;-51
2021/10/21 05:06:06;;;;;;;2.20;0.63;;;;;;;7.98;65.91;98404.19;4994951;28;20081;-48
2021/10/21 05:08:33;;;;;;;2.85;0.25;;;;;;;7.89;66.06;98404.34;4996194;28;20563;-51
2021/10/21 05:10:59;;;;;;;3.97;0.57;;;;;;;7.83;64.88;98425.94;4998464;28;20182;-52
2021/10/21 05:13:26;;;;;;;3.42;0.60;;;;;;;7.73;65.45;98422.66;4996941;28;20445;-51
2021/10/21 05:15:52;;;;;;;2.08;0.45;;;;;;;7.69;64.86;98429.59;4995367;28;20580;-53
2021/10/21 05:18:19;;;;;;;3.63;0.57;;;;;;;7.60;65.52;98440.06;4992758;28;20525;-52
2021/10/21 05:20:46;;;;;;;2.35;0.65;;;;;;;7.58;65.65;98454.72;4995443;28;20508;-50
2021/10/21 05:23:13;;;;;;;3.00;0.80;;;;;;;7.53;66.00;98456.53;4995593;28;20443;-49
2021/10/21 05:25:39;;;;;;;3.72;0.52;;;;;;;7.52;65.31;98472.81;4995118;28;21846;-52
2021/10/21 05:28:06;;;;;;;2.38;0.57;;;;;;;7.40;65.47;98479.88;5002525;28;20112;-52
2021/10/21 05:30:32;;;;;;;4.90;0.70;;;;;;;7.38;65.02;98476.47;4991209;28;20636;-52
2021/10/21 05:33:01;;;;;;;4.65;0.82;;;;;;;7.27;64.22;98496.38;4997640;28;20054;-49
2021/10/21 05:35:30;;;;;;;0.60;0.32;;;;;;;7.12;64.42;98490.56;4985344;28;20081;-51
2021/10/21 05:37:57;;;;;;;0.52;0.35;;;;;;;7.07;65.43;98497.53;4995555;28;20057;-49
2021/10/21 05:40:24;;;;;;;0.55;0.55;;;;;;;7.09;65.19;98490.59;4993839;28;20499;-50
2021/10/21 05:42:51;;;;;;;1.13;0.47;;;;;;;7.06;64.87;98506.97;4992326;28;20050;-49
2021/10/21 05:45:17;;;;;;;5.32;0.70;;;;;;;7.09;65.31;98521.50;4988414;28;20109;-52
2021/10/21 05:47:46;;;;;;;1.23;0.63;;;;;;;7.10;65.31;98537.81;4991081;28;20761;-52
2021/10/21 05:50:13;;;;;;;1.35;1.25;;;;;;;7.06;65.07;98531.88;4993977;28;20065;-50
2021/10/21 05:52:40;;;;;;;1.02;0.45;;;;;;;7.02;66.22;98532.75;4994562;28;20057;-51
2021/10/21 05:55:07;;;;;;;1.10;0.68;;;;;;;7.01;66.51;98554.22;4991177;28;20470;-52
2021/10/21 05:57:34;;;;;;;2.22;0.50;;;;;;;7.06;67.22;98557.63;4992338;28;20051;-52
2021/10/21 06:00:01;;;;;;;3.22;0.52;;;;;;;7.06;67.06;98570.50;4997551;28;20075;-50
2021/10/21 06:02:27;;;;;;;4.88;0.80;;;;;;;7.09;66.21;98578.16;4988089;28;20060;-49
2021/10/21 06:04:54;;;;;;;0.68;0.40;;;;;;;6.98;66.62;98585.16;4982812;28;20046;-49
2021/10/21 06:07:20;;;;;;;0.90;0.68;;;;;;;6.99;66.96;98592.03;4990680;28;20046;-48
2021/10/21 06:09:48;;;;;;;1.50;0.52;;;;;;;6.90;68.21;98601.56;4995868;28;20377;-51
2021/10/21 06:12:14;;;;;;;0.75;0.75;;;;;;;6.92;68.55;98612.66;4993193;28;20168;-47
2021/10/21 06:14:41;;;;;;;0.90;0.50;;;;;;;6.83;70.02;98638.53;4989352;28;20133;-48
2021/10/21 06:17:07;;;;;;;0.55;0.40;;;;;;;6.64;69.91;98648.13;4994606;28;20054;-54
2021/10/21 06:19:34;;;;;;;0.30;0.20;;;;;;;6.48;70.80;98673.16;5002212;28;20666;-49
2021/10/21 06:22:07;;;;;;;0.45;0.30;;;;;;;6.45;70.07;98688.59;4989190;28;20043;-49
2021/10/21 06:24:34;;;;;;;0.38;0.38;;;;;;;6.26;71.42;98699.88;4993227;28;20581;-49
2021/10/21 06:27:00;;;;;;;1.20;0.35;;;;;;;6.17;72.69;98730.78;4996638;28;20046;-50
2021/10/21 06:29:28;;;;;;;0.52;0.52;;;;;;;6.12;71.81;98737.66;4992676;28;20609;-48
2021/10/21 06:31:54;;;;;;;0.93;0.20;;;;;;;6.03;72.49;98748.81;4991567;28;20483;-49
2021/10/21 06:34:21;;;;;;;0.52;0.52;;;;;;;6.06;72.74;98768.53;4995684;28;20098;-48
2021/10/21 06:36:48;;;;;;;0.75;0.75;;;;;;;6.01;73.08;98791.69;4987912;28;20049;-49
2021/10/21 06:39:14;;;;;;;0.40;0.35;;;;;;;5.98;72.34;98796.84;4990597;28;20050;-48
2021/10/21 06:41:41;;;;;;;0.68;0.35;;;;;;;5.93;72.69;98804.56;4996039;28;20046;-48
2021/10/21 06:44:08;;;;;;;0.45;0.40;;;;;;;5.79;74.02;98817.47;4991006;28;20521;-49
2021/10/21 06:46:34;;;;;;;1.23;1.23;;;;;;;5.76;74.22;98817.47;4953684;28;1143346;-49
2021/10/21 06:49:01;;;;;;;0.43;0.20;;;;;;;5.67;74.15;98838.88;4997726;28;20049;-48
2021/10/21 06:51:27;;;;;;;0.35;0.30;;;;;;;5.60;73.85;98858.59;4990592;28;20104;-52
2021/10/21 06:53:54;;;;;;;0.35;0.35;;;;;;;5.52;74.04;98855.19;5001409;28;20487;-51
2021/10/21 06:56:21;;;;;;;0.40;0.22;;;;;;;5.55;74.04;98880.88;4991019;28;20073;-51
2021/10/21 06:58:48;;;;;;;0.25;0.25;;;;;;;5.49;74.18;98880.88;4994428;28;20042;-50
2021/10/21 07:01:15;;;;;;;0.43;0.35;;;;;;;5.50;74.44;98900.56;4991848;28;20552;-50
2021/10/21 07:03:41;;;;;;;0.93;0.30;;;;;;;5.52;73.62;98907.44;4993889;28;20069;-53
2021/10/21 07:06:08;;;;;;;0.63;0.35;;;;;;;5.53;74.20;98923.69;4982831;28;20085;-53
2021/10/21 07:08:35;;;;;;;0.55;0.52;;;;;;;5.55;74.52;98926.25;4991873;28;20498;-50
2021/10/21 07:11:02;;;;;;;0.52;0.52;;;;;;;5.57;73.99;98943.38;4995305;28;20042;-49
2021/10/21 07:13:28;;;;;;;0.32;0.22;;;;;;;5.58;73.35;98952.81;4987198;28;20122;-49
2021/10/21 07:16:05;;;;;;;0.47;0.47;;;;;;;5.58;73.79;98959.66;4990057;28;20106;-50
2021/10/21 07:18:33;;;;;;;0.50;0.40;;;;;;;5.59;74.20;98969.06;4985515;28;20046;-51
2021/10/21 07:20:59;;;;;;;1.00;0.90;;;;;;;5.61;73.85;98983.59;4988622;28;20057;-51
2021/10/21 07:23:26;;;;;;;3.53;0.82;;;;;;;5.65;73.30;98993.03;4993094;28;20520;-51
2021/10/21 07:25:54;;;;;;;0.85;0.85;;;;;;;5.66;73.15;99006.75;4988573;28;20494;-50
2021/10/21 07:28:22;;;;;;;0.60;0.60;;;;;;;5.67;72.94;99013.59;4995865;28;20057;-50
2021/10/21 07:30:54;;;;;;;1.55;0.45;;;;;;;5.67;73.49;99029.00;4988955;28;20061;-49
2021/10/21 07:33:21;;;;;;;0.80;0.43;;;;;;;5.70;72.33;99044.44;4991961;28;20042;-50
2021/10/21 07:35:47;;;;;;;2.90;0.40;;;;;;;5.71;72.24;99055.56;4987119;28;20092;-50
2021/10/21 07:38:14;;;;;;;2.25;0.40;;;;;;;5.72;72.69;99057.28;4985132;28;20097;-50
2021/10/21 07:40:41;;;;;;;2.08;0.50;;;;;;;5.81;72.93;99067.56;4991286;28;20109;-53
2021/10/21 07:43:10;;;;;;;0.47;0.47;;;;;;;6.06;71.07;99072.75;4995602;28;20109;-52
2021/10/21 07:45:37;;;;;;;1.92;0.60;;;;;;;6.13;70.83;99078.75;4992946;28;20693;-50
2021/10/21 07:48:06;;;;;;;0.40;0.30;;;;;;;6.22;70.59;99085.59;4990435;28;20053;-50
2021/10/21 07:50:34;;;;;;;0.57;0.32;;;;;;;6.61;70.90;99100.97;4994701;28;20541;-52
2021/10/21 07:53:06;;;;;;;1.67;0.55;;;;;;;7.12;69.07;99115.44;4991765;28;20582;-50
2021/10/21 07:55:35;;;;;;;0.82;0.82;;;;;;;7.32;67.96;99117.94;4994144;28;20050;-52
2021/10/21 07:58:03;;;;;;;0.65;0.30;;;;;;;7.62;66.55;99134.09;4992459;28;20086;-51
2021/10/21 08:00:30;;;;;;;0.85;0.25;;;;;;;7.93;65.37;99144.25;5000992;28;20077;-50
2021/10/21 08:02:57;;;;;;;0.57;0.35;;;;;;;8.23;64.39;99157.78;4992127;28;20114;-52
2021/10/21 08:05:24;;;;;;;3.00;0.85;;;;;;;8.27;63.84;99173.25;4992032;28;20057;-50
2021/10/21 08:07:50;;;;;;;3.30;0.85;;;;;;;8.29;64.14;99176.66;4988198;28;20490;-53
2021/10/21 08:10:23;;;;;;;3.05;0.98;;;;;;;8.46;64.27;99190.31;4993416;28;20046;-52
2021/10/21 08:12:50;;;;;;;2.65;0.45;;;;;;;8.65;63.31;99205.66;4996079;28;20058;-51
2021/10/21 08:15:18;;;;;;;0.28;0.28;;;;;;;8.98;62.09;99207.94;4994088;28;20056;-51
2021/10/21 08:17:44;;;;;;;0.57;0.50;;;;;;;9.23;60.89;99205.97;4993436;28;20825;-54
2021/10/21 08:20:13;;;;;;;0.70;0.40;;;;;;;9.52;59.72;99212.53;4988465;28;20141;-51
2021/10/21 08:22:42;;;;;;;0.55;0.55;;;;;;;9.87;59.05;99220.72;4996940;28;20873;-51
2021/10/21 08:25:10;;;;;;;6.95;0.52;;;;;;;10.44;57.60;99219.94;4984143;28;20050;-51
2021/10/21 08:27:38;;;;;;;0.63;0.50;;;;;;;11.10;57.31;99235.28;4998338;28;20114;-51
2021/10/21 08:30:07;;;;;;;1.55;0.40;;;;;;;11.78;55.53;99243.47;4987866;28;20071;-53
2021/10/21 08:32:35;;;;;;;1.83;0.35;;;;;;;12.40;54.39;99257.75;4991733;28;20055;-53
2021/10/21 08:35:03;;;;;;;1.30;0.50;;;;;;;13.11;52.55;99255.16;4987413;28;20059;-53
2021/10/21 08:37:30;;;;;;;5.20;0.60;;;;;;;13.70;49.00;99272.72;4985493;28;20054;-50
2021/10/21 08:39:56;;;;;;;0.90;0.55;;;;;;;14.16;51.01;99285.31;4988980;28;20050;-52
2021/10/21 08:42:23;;;;;;;2.28;0.47;;;;;;;14.56;47.88;99289.28;4996229;28;20077;-50
2021/10/21 08:44:52;;;;;;;1.23;1.15;;;;;;;14.90;46.82;99288.25;4984080;28;20046;-49
2021/10/21 08:47:20;;;;;;;1.45;0.47;;;;;;;15.32;46.26;99308.59;4987849;28;20068;-53
2021/10/21 08:49:47;;;;;;;2.72;0.70;;;;;;;15.86;45.66;99309.34;4990126;28;20054;-53
2021/10/21 08:52:15;;;;;;;1.20;0.73;;;;;;;16.48;45.53;99326.25;4987521;28;20050;-52
2021/10/21 08:54:42;;;;;;;2.67;1.10;;;;;;;16.95;43.90;99326.09;4995947;28;20109;-53
2021/10/21 08:57:11;;;;;;;1.73;0.50;;;;;;;17.13;41.91;99328.94;4990597;28;20097;-51
2021/10/21 08:59:43;;;;;;;1.65;0.52;;;;;;;17.24;42.37;99340.69;4991528;28;20038;-51
2021/10/21 09:02:18;;;;;;;2.22;0.82;;;;;;;17.37;41.53;99347.13;4983651;28;20049;-51
2021/10/21 09:05:01;;;;;;;1.08;0.43;;;;;;;17.89;42.17;99356.25;4987614;28;20121;-54
2021/10/21 09:10:14;;;;;;;1.77;0.82;;;;;;;18.32;39.66;99370.97;4988061;28;20341;-53
2021/10/21 09:12:45;;;;;;;1.15;0.55;;;;;;;18.70;38.39;99376.22;4992433;28;20042;-53
2021/10/21 09:15:16;;;;;;;2.70;0.65;;;;;;;18.88;37.66;99386.75;4985350;28;20101;-54
2021/10/21 09:17:44;;;;;;;0.98;0.50;;;;;;;18.95;37.21;99385.50;4990433;28;20043;-54
2021/10/21 09:20:25;;;;;;;1.30;0.88;;;;;;;18.36;35.47;99401.38;4986654;28;20097;-51
2021/10/21 09:22:56;;;;;;;3.35;1.17;;;;;;;17.46;36.92;99406.94;4992667;28;20045;-54
2021/10/21 09:25:26;;;;;;;2.50;0.77;;;;;;;16.62;39.06;99420.66;4986656;28;20059;-51
2021/10/21 09:27:56;;;;;;;2.88;0.80;;;;;;;16.26;39.50;99413.28;4984376;28;20047;-53
2021/10/21 09:30:26;;;;;;;1.50;0.63;;;;;;;16.62;39.94;99423.25;4985824;28;20089;-51
2021/10/21 09:32:53;;;;;;;1.02;1.00;;;;;;;17.17;38.92;99416.84;4985574;28;20058;-53
2021/10/21 09:35:22;;;;;;;3.17;0.80;;;;;;;17.54;38.91;99432.81;4990194;28;20058;-52
2021/10/21 09:37:54;;;;;;;1.55;0.88;;;;;;;18.12;38.62;99433.00;4989666;28;20054;-52
2021/10/21 09:40:28;;;;;;;2.70;1.05;;;;;;;18.53;37.69;99441.69;4985414;28;20050;-51
2021/10/21 09:43:01;;;;;;;0.88;0.50;;;;;;;18.84;35.63;99451.63;4991796;28;20104;-53
2021/10/21 09:45:33;;;;;;;2.05;0.82;;;;;;;18.80;35.97;99454.44;4988574;28;20109;-54
2021/10/21 09:48:02;;;;;;;1.80;0.98;;;;;;;18.94;36.51;99469.53;4995135;28;20056;-53
2021/10/21 09:50:36;;;;;;;4.85;1.13;;;;;;;19.22;35.34;99471.75;4983528;28;20054;-51
2021/10/21 09:53:14;;;;;;;1.95;0.47;;;;;;;19.13;34.63;99472.19;4973768;28;20109;-52
2021/10/21 09:55:42;;;;;;;1.20;0.60;;;;;;;19.20;35.35;99478.84;4976054;28;20058;-51
2021/10/21 09:58:11;;;;;;;1.15;0.50;;;;;;;19.26;36.04;99486.41;4972132;28;20509;-54
2021/10/21 10:00:39;;;;;;;2.03;1.27;;;;;;;19.35;35.46;99497.44;4974600;28;20058;-51
2021/10/21 10:03:15;;;;;;;1.65;1.05;;;;;;;19.06;34.04;99497.91;4975583;28;20101;-54
2021/10/21 10:05:47;;;;;;;1.77;0.55;;;;;;;18.69;35.60;99508.28;4979152;28;20042;-53
2021/10/21 10:08:15;;;;;;;1.95;0.77;;;;;;;18.67;35.48;99512.72;4988964;28;20262;-51
2021/10/21 10:10:44;;;;;;;4.20;0.70;;;;;;;18.57;35.77;99514.91;4986290;28;20050;-54
2021/10/21 10:13:11;;;;;;;3.85;0.70;;;;;;;18.54;35.74;99522.09;4987457;28;20058;-54
2021/10/21 10:15:43;;;;;;;1.55;0.40;;;;;;;18.28;35.95;99522.31;4985629;28;20057;-53
2021/10/21 10:18:16;;;;;;;1.70;0.82;;;;;;;18.12;35.03;99522.09;4997709;28;20281;-54
2021/10/21 10:21:11;;;;;;;2.70;0.55;;;;;;;18.14;35.45;99527.28;4987601;28;20048;-51
2021/10/21 10:23:41;;;;;;;4.15;0.75;;;;;;;17.96;36.39;99533.22;4986741;28;20050;-54
2021/10/21 10:26:07;;;;;;;;;;;;;;;17.72;34.83;99546.41;4989921;28;20069;-54
2021/10/21 10:28:53;;;;;;;3.28;1.25;;;;;;;17.53;35.35;99550.69;4990419;28;20332;-54
2021/10/21 10:31:49;;;;;;;2.38;0.60;;;;;;;17.30;34.93;99553.25;4980691;28;20062;-54
2021/10/21 10:34:55;;;;;;;3.50;0.75;;;;;;;16.78;36.17;99562.13;4978779;28;20061;-55
2021/10/21 10:37:37;;;;;;;2.10;0.55;;;;;;;16.06;37.23;99561.13;4972198;28;20050;-54
2021/10/21 10:40:04;;;;;;;3.28;0.73;;;;;;;15.51;38.28;99570.66;4975037;28;20042;-54
2021/10/21 10:42:56;;;;;;;2.08;0.88;;;;;;;14.95;38.32;99574.91;4978474;28;20100;-55
2021/10/21 10:45:38;;;;;;;3.70;1.30;;;;;;;14.56;39.99;99569.88;4977097;28;20096;-52
2021/10/21 10:48:05;;;;;;;3.03;1.05;;;;;;;14.33;40.89;99590.44;4979793;28;20566;-54
2021/10/21 10:50:52;;;;;;;3.15;0.73;;;;;;;14.00;41.97;99595.59;4980743;28;20047;-54
2021/10/21 10:53:48;;;;;;;4.60;0.70;;;;;;;13.73;42.36;99592.75;4990971;28;20050;-54
2021/10/21 10:56:41;;;;;;;3.80;0.88;;;;;;;13.44;42.46;99604.66;4987305;28;20042;-54
2021/10/21 10:59:17;;;;;;;9.30;1.23;;;;;;;13.22;43.87;99605.09;4989925;28;20060;-52
2021/10/21 11:01:44;;;;;;;6.03;0.65;;;;;;;13.11;44.64;99619.16;4998722;28;20073;-51
2021/10/21 11:04:11;;;;;;;2.58;0.70;;;;;;;13.07;45.11;99622.72;4991129;28;20042;-53
2021/10/21 11:06:37;;;;;;;1.85;0.80;;;;;;;12.95;44.80;99633.34;4996403;28;20034;-54
2021/10/21 11:09:06;;;;;;;4.18;0.73;;;;;;;12.88;45.14;99647.34;4988164;28;20052;-54
2021/10/21 11:12:01;;;;;;;1.65;0.63;;;;;;;12.68;44.91;99641.66;4984167;28;20058;-53
2021/10/21 11:14:44;;;;;;;3.45;1.38;;;;;;;12.46;44.90;99646.34;5000108;28;20038;-50
2021/10/21 11:17:12;;;;;;;4.10;0.77;;;;;;;12.38;45.93;99661.19;4985660;28;20054;-52
2021/10/21 11:19:45;;;;;;;2.47;0.73;;;;;;;12.20;46.59;99660.63;4991631;28;20050;-49
2021/10/21 11:22:36;;;;;;;2.85;0.47;;;;;;;12.07;47.32;99660.81;4987371;28;20050;-51
2021/10/21 11:25:07;;;;;;;2.85;0.88;;;;;;;12.05;47.72;99657.34;4987842;28;20116;-50
2021/10/21 11:27:39;;;;;;;1.30;0.70;;;;;;;11.85;46.55;99664.59;4991128;28;20053;-50
2021/10/21 11:30:13;;;;;;;5.97;1.23;;;;;;;11.83;46.39;99675.81;4990413;28;20054;-53
2021/10/21 11:33:01;;;;;;;3.42;0.55;;;;;;;11.72;46.57;99682.88;4994532;28;20125;-53
2021/10/21 11:35:30;;;;;;;2.17;0.60;;;;;;;11.71;48.16;99686.38;4988831;28;20054;-50
2021/10/21 11:38:00;;;;;;;3.22;0.98;;;;;;;11.64;47.09;99697.69;4982131;28;20054;-51
2021/10/21 11:40:35;;;;;;;3.03;0.90;;;;;;;11.64;46.80;99702.88;4978883;28;20109;-50
2021/10/21 11:43:05;;;;;;;6.32;1.15;;;;;;;11.67;47.69;99708.03;4991179;28;20081;-51
2021/10/21 11:45:39;;;;;;;5.38;0.90;;;;;;;11.69;48.37;99717.53;4986911;28;20054;-50
2021/10/21 11:48:10;;;;;;;3.95;0.73;;;;;;;11.70;47.51;99713.19;4982602;28;20042;-51
2021/10/21 11:50:41;;;;;;;4.40;0.68;;;;;;;11.68;48.24;99714.94;4990352;28;20054;-52